sensor_id;sensor_type;location;lat;lon;timestamp;pressure;altitude;pressure_sealevel;temperature;humidity
47726;BME280;33483;48.294;16.388;2023-05-23T00:01:07;99168.44;;;14.84;100.00
47726;BME280;33483;48.294;16.388;2023-05-23T00:03:35;99171.03;;;14.82;100.00
47726;BME280;33483;48.294;16.388;2023-05-23T00:06:04;99168.88;;;14.73;100.00
47726;BME280;33483;48.294;16.388;2023-05-23T00:08:31;99173.13;;;14.74;100.00
47726;BME280;33483;48.294;16.388;2023-05-23T00:10:58;99171.81;;;14.75;100.00
47726;BME280;33483;48.294;16.388;2023-05-23T00:13:26;99167.34;;;14.80;100.00
47726;BME280;33483;48.294;16.388;2023-05-23T00:15:53;99175.53;;;14.78;100.00
47726;BME280;33483;48.294;16.388;2023-05-23T00:18:20;99173.13;;;14.74;100.00
47726;BME280;33483;48.294;16.388;2023-05-23T00:20:50;99174.47;;;14.65;100.00
47726;BME280;33483;48.294;16.388;2023-05-23T00:23:17;99167.47;;;14.57;100.00
47726;BME280;33483;48.294;16.388;2023-05-23T00:25:46;99165.63;;;14.52;100.00
47726;BME280;33483;48.294;16.388;2023-05-23T00:28:21;99163.78;;;14.47;100.00
47726;BME280;33483;48.294;16.388;2023-05-23T00:30:48;99169.19;;;14.45;100.00
47726;BME280;33483;48.294;16.388;2023-05-23T00:33:15;99167.34;;;14.40;100.00
47726;BME280;33483;48.294;16.388;2023-05-23T00:35:43;99171.22;;;14.37;100.00
47726;BME280;33483;48.294;16.388;2023-05-23T00:38:10;99169.00;;;14.35;100.00
47726;BME280;33483;48.294;16.388;2023-05-23T00:40:37;99168.09;;;14.33;100.00
47726;BME280;33483;48.294;16.388;2023-05-23T00:43:05;99169.75;;;14.36;100.00
47726;BME280;33483;48.294;16.388;2023-05-23T00:45:34;99163.81;;;14.32;100.00
47726;BME280;33483;48.294;16.388;2023-05-23T00:48:01;99169.94;;;14.38;100.00
47726;BME280;33483;48.294;16.388;2023-05-23T00:50:29;99170.28;;;14.42;100.00
47726;BME280;33483;48.294;16.388;2023-05-23T00:52:59;99169.00;;;14.35;100.00
47726;BME280;33483;48.294;16.388;2023-05-23T00:55:29;99167.88;;;14.38;100.00
47726;BME280;33483;48.294;16.388;2023-05-23T00:57:56;99165.66;;;14.37;100.00
47726;BME280;33483;48.294;16.388;2023-05-23T01:00:24;99164.75;;;14.34;100.00
47726;BME280;33483;48.294;16.388;2023-05-23T01:02:52;99165.47;;;14.35;100.00
47726;BME280;33483;48.294;16.388;2023-05-23T01:05:19;99161.59;;;14.30;100.00
47726;BME280;33483;48.294;16.388;2023-05-23T01:07:48;99160.84;;;14.22;100.00
47726;BME280;33483;48.294;16.388;2023-05-23T01:10:26;99162.34;;;14.16;100.00
47726;BME280;33483;48.294;16.388;2023-05-23T01:13:03;99150.84;;;14.12;100.00
47726;BME280;33483;48.294;16.388;2023-05-23T01:15:37;99151.63;;;14.05;100.00
47726;BME280;33483;48.294;16.388;2023-05-23T01:20:37;99153.84;;;13.99;100.00
47726;BME280;33483;48.294;16.388;2023-05-23T01:28:27;99139.38;;;13.93;100.00
47726;BME280;33483;48.294;16.388;2023-05-23T01:30:55;99153.13;;;13.91;100.00
47726;BME280;33483;48.294;16.388;2023-05-23T01:33:24;99156.28;;;13.80;100.00
47726;BME280;33483;48.294;16.388;2023-05-23T01:35:51;99148.69;;;13.73;100.00
47726;BME280;33483;48.294;16.388;2023-05-23T01:38:18;99148.31;;;13.69;100.00
47726;BME280;33483;48.294;16.388;2023-05-23T01:40:45;99148.34;;;13.61;100.00
47726;BME280;33483;48.294;16.388;2023-05-23T01:43:12;99147.41;;;13.58;100.00
47726;BME280;33483;48.294;16.388;2023-05-23T01:45:42;99147.03;;;13.54;100.00
47726;BME280;33483;48.294;16.388;2023-05-23T01:48:10;99138.31;;;13.50;100.00
47726;BME280;33483;48.294;16.388;2023-05-23T01:50:38;99133.13;;;13.47;100.00
47726;BME280;33483;48.294;16.388;2023-05-23T01:53:07;99133.13;;;13.47;100.00
47726;BME280;33483;48.294;16.388;2023-05-23T01:55:39;99131.09;;;13.47;100.00
47726;BME280;33483;48.294;16.388;2023-05-23T01:58:07;99122.38;;;13.51;100.00
47726;BME280;33483;48.294;16.388;2023-05-23T02:00:34;99129.41;;;13.44;100.00
47726;BME280;33483;48.294;16.388;2023-05-23T02:03:02;99135.16;;;13.39;100.00
47726;BME280;33483;48.294;16.388;2023-05-23T02:05:31;99135.50;;;13.35;100.00
47726;BME280;33483;48.294;16.388;2023-05-23T02:08:00;99134.59;;;13.33;100.00
47726;BME280;33483;48.294;16.388;2023-05-23T02:10:27;99133.84;;;13.32;100.00
47726;BME280;33483;48.294;16.388;2023-05-23T02:12:54;99136.47;;;13.45;100.00
47726;BME280;33483;48.294;16.388;2023-05-23T02:15:21;99135.72;;;13.45;100.00
47726;BME280;33483;48.294;16.388;2023-05-23T02:17:49;99128.47;;;13.42;100.00
47726;BME280;33483;48.294;16.388;2023-05-23T02:20:17;99134.63;;;13.40;100.00
47726;BME280;33483;48.294;16.388;2023-05-23T02:22:47;99129.03;;;13.40;100.00
47726;BME280;33483;48.294;16.388;2023-05-23T02:25:14;99127.53;;;13.32;100.00
47726;BME280;33483;48.294;16.388;2023-05-23T02:27:41;99121.25;;;13.31;100.00
47726;BME280;33483;48.294;16.388;2023-05-23T02:30:08;99124.41;;;13.28;100.00
47726;BME280;33483;48.294;16.388;2023-05-23T02:32:38;99126.25;;;13.25;100.00
47726;BME280;33483;48.294;16.388;2023-05-23T02:35:05;99124.56;;;13.22;100.00
47726;BME280;33483;48.294;16.388;2023-05-23T02:37:32;99125.69;;;13.19;100.00
47726;BME280;33483;48.294;16.388;2023-05-23T02:39:59;99124.75;;;13.17;100.00
47726;BME280;33483;48.294;16.388;2023-05-23T02:42:27;99119.38;;;13.19;100.00
47726;BME280;33483;48.294;16.388;2023-05-23T02:44:54;99116.78;;;13.13;100.00
47726;BME280;33483;48.294;16.388;2023-05-23T02:47:25;99126.25;;;13.10;100.00
47726;BME280;33483;48.294;16.388;2023-05-23T02:49:51;99121.06;;;13.14;100.00
47726;BME280;33483;48.294;16.388;2023-05-23T02:52:19;99119.94;;;13.10;100.00
47726;BME280;33483;48.294;16.388;2023-05-23T02:54:46;99117.31;;;13.04;100.00
47726;BME280;33483;48.294;16.388;2023-05-23T02:57:16;99114.34;;;13.10;100.00
47726;BME280;33483;48.294;16.388;2023-05-23T02:59:44;99110.28;;;13.03;100.00
47726;BME280;33483;48.294;16.388;2023-05-23T03:02:13;99117.88;;;13.03;100.00
47726;BME280;33483;48.294;16.388;2023-05-23T03:04:41;99115.84;;;13.03;100.00
47726;BME280;33483;48.294;16.388;2023-05-23T03:07:08;99116.00;;;12.98;100.00
47726;BME280;33483;48.294;16.388;2023-05-23T03:09:50;99111.56;;;13.02;100.00
47726;BME280;33483;48.294;16.388;2023-05-23T03:12:17;99118.06;;;13.05;100.00
47726;BME280;33483;48.294;16.388;2023-05-23T03:14:44;99116.97;;;13.15;100.00
47726;BME280;33483;48.294;16.388;2023-05-23T03:17:16;99117.16;;;13.17;100.00
47726;BME280;33483;48.294;16.388;2023-05-23T03:19:43;99122.91;;;13.27;100.00
47726;BME280;33483;48.294;16.388;2023-05-23T03:22:11;99122.72;;;13.32;100.00
47726;BME280;33483;48.294;16.388;2023-05-23T03:24:38;99129.78;;;13.26;100.00
47726;BME280;33483;48.294;16.388;2023-05-23T03:27:05;99132.19;;;13.29;100.00
47726;BME280;33483;48.294;16.388;2023-05-23T03:29:34;99124.22;;;13.33;100.00
47726;BME280;33483;48.294;16.388;2023-05-23T03:32:04;99133.88;;;13.40;100.00
47726;BME280;33483;48.294;16.388;2023-05-23T03:34:32;99144.25;;;13.47;100.00
47726;BME280;33483;48.294;16.388;2023-05-23T03:37:00;99137.75;;;13.52;100.00
47726;BME280;33483;48.294;16.388;2023-05-23T03:39:27;99144.25;;;13.62;100.00
47726;BME280;33483;48.294;16.388;2023-05-23T03:41:57;99135.69;;;13.68;100.00
47726;BME280;33483;48.294;16.388;2023-05-23T03:44:24;99138.81;;;13.79;100.00
47726;BME280;33483;48.294;16.388;2023-05-23T03:46:52;99141.97;;;13.91;100.00
47726;BME280;33483;48.294;16.388;2023-05-23T03:49:19;99138.25;;;13.96;100.00
47726;BME280;33483;48.294;16.388;2023-05-23T03:51:46;99144.91;;;14.00;100.00
47726;BME280;33483;48.294;16.388;2023-05-23T03:54:15;99147.88;;;14.10;100.00
47726;BME280;33483;48.294;16.388;2023-05-23T03:56:44;99142.06;;;14.23;100.00
47726;BME280;33483;48.294;16.388;2023-05-23T03:59:11;99141.34;;;14.30;100.00
47726;BME280;33483;48.294;16.388;2023-05-23T04:01:42;99139.09;;;14.36;100.00
47726;BME280;33483;48.294;16.388;2023-05-23T04:04:09;99143.53;;;14.39;100.00
47726;BME280;33483;48.294;16.388;2023-05-23T04:06:39;99140.72;;;14.46;100.00
47726;BME280;33483;48.294;16.388;2023-05-23T04:09:07;99146.09;;;14.52;100.00
47726;BME280;33483;48.294;16.388;2023-05-23T04:11:41;99149.41;;;14.58;100.00
47726;BME280;33483;48.294;16.388;2023-05-23T04:14:11;99145.84;;;14.65;100.00
47726;BME280;33483;48.294;16.388;2023-05-23T04:16:40;99153.47;;;14.64;100.00
47726;BME280;33483;48.294;16.388;2023-05-23T04:19:08;99151.00;;;14.76;100.00
47726;BME280;33483;48.294;16.388;2023-05-23T04:21:36;99139.38;;;14.87;100.00
47726;BME280;33483;48.294;16.388;2023-05-23T04:24:14;99148.97;;;15.01;100.00
47726;BME280;33483;48.294;16.388;2023-05-23T04:26:44;99156.91;;;15.12;100.00
47726;BME280;33483;48.294;16.388;2023-05-23T04:29:11;99149.56;;;15.24;100.00
47726;BME280;33483;48.294;16.388;2023-05-23T04:31:38;99153.41;;;15.36;100.00
47726;BME280;33483;48.294;16.388;2023-05-23T04:34:05;99142.78;;;15.42;100.00
47726;BME280;33483;48.294;16.388;2023-05-23T04:36:37;99152.00;;;15.52;100.00
47726;BME280;33483;48.294;16.388;2023-05-23T04:39:04;99157.53;;;15.60;100.00
47726;BME280;33483;48.294;16.388;2023-05-23T04:41:37;99152.97;;;15.72;100.00
47726;BME280;33483;48.294;16.388;2023-05-23T04:44:27;99153.22;;;15.84;100.00
47726;BME280;33483;48.294;16.388;2023-05-23T04:47:08;99153.50;;;15.95;100.00
47726;BME280;33483;48.294;16.388;2023-05-23T04:50:07;99158.16;;;16.10;100.00
47726;BME280;33483;48.294;16.388;2023-05-23T04:52:36;99153.06;;;16.33;100.00
47726;BME280;33483;48.294;16.388;2023-05-23T04:55:05;99150.59;;;16.37;100.00
47726;BME280;33483;48.294;16.388;2023-05-23T04:57:34;99157.44;;;16.43;100.00
47726;BME280;33483;48.294;16.388;2023-05-23T05:00:04;99153.72;;;16.41;100.00
47726;BME280;33483;48.294;16.388;2023-05-23T05:02:37;99156.34;;;16.39;100.00
47726;BME280;33483;48.294;16.388;2023-05-23T05:05:05;99162.09;;;16.41;100.00
47726;BME280;33483;48.294;16.388;2023-05-23T05:07:33;99159.63;;;16.45;100.00
47726;BME280;33483;48.294;16.388;2023-05-23T05:10:02;99155.50;;;16.80;100.00
47726;BME280;33483;48.294;16.388;2023-05-23T05:12:31;99162.53;;;17.61;100.00
47726;BME280;33483;48.294;16.388;2023-05-23T05:15:01;99157.94;;;18.59;100.00
47726;BME280;33483;48.294;16.388;2023-05-23T05:17:29;99168.81;;;18.93;100.00
47726;BME280;33483;48.294;16.388;2023-05-23T05:20:02;99171.22;;;18.68;100.00
47726;BME280;33483;48.294;16.388;2023-05-23T05:22:37;99174.50;;;18.55;100.00
47726;BME280;33483;48.294;16.388;2023-05-23T05:25:11;99175.34;;;18.86;100.00
47726;BME280;33483;48.294;16.388;2023-05-23T05:27:39;99173.19;;;19.86;100.00
47726;BME280;33483;48.294;16.388;2023-05-23T05:30:09;99183.66;;;20.91;100.00
47726;BME280;33483;48.294;16.388;2023-05-23T05:32:46;99187.78;;;21.11;100.00
47726;BME280;33483;48.294;16.388;2023-05-23T05:35:13;99183.22;;;20.73;100.00
47726;BME280;33483;48.294;16.388;2023-05-23T05:37:45;99182.56;;;20.31;100.00
47726;BME280;33483;48.294;16.388;2023-05-23T05:40:12;99190.06;;;20.17;100.00
47726;BME280;33483;48.294;16.388;2023-05-23T05:42:42;99193.88;;;20.21;100.00
47726;BME280;33483;48.294;16.388;2023-05-23T05:45:11;99175.69;;;19.91;100.00
47726;BME280;33483;48.294;16.388;2023-05-23T05:47:42;99180.50;;;19.79;100.00
47726;BME280;33483;48.294;16.388;2023-05-23T05:50:12;99184.03;;;19.80;100.00
47726;BME280;33483;48.294;16.388;2023-05-23T05:52:40;99179.41;;;19.84;100.00
47726;BME280;33483;48.294;16.388;2023-05-23T05:55:10;99180.50;;;19.79;100.00
47726;BME280;33483;48.294;16.388;2023-05-23T05:57:40;99178.69;;;20.05;100.00
47726;BME280;33483;48.294;16.388;2023-05-23T06:00:11;99178.50;;;20.12;100.00
47726;BME280;33483;48.294;16.388;2023-05-23T06:02:54;99179.66;;;20.19;100.00
47726;BME280;33483;48.294;16.388;2023-05-23T06:05:38;99181.72;;;19.97;100.00
47726;BME280;33483;48.294;16.388;2023-05-23T06:08:05;99173.47;;;19.90;100.00
47726;BME280;33483;48.294;16.388;2023-05-23T06:10:33;99171.00;;;20.05;100.00
47726;BME280;33483;48.294;16.388;2023-05-23T06:13:01;99170.94;;;20.15;100.00
47726;BME280;33483;48.294;16.388;2023-05-23T06:15:29;99173.41;;;20.42;100.00
47726;BME280;33483;48.294;16.388;2023-05-23T06:17:56;99172.59;;;20.51;100.00
47726;BME280;33483;48.294;16.388;2023-05-23T06:20:24;99177.69;;;20.64;100.00
47726;BME280;33483;48.294;16.388;2023-05-23T06:22:53;99183.19;;;20.62;100.00
47726;BME280;33483;48.294;16.388;2023-05-23T06:25:20;99181.00;;;21.04;100.00
47726;BME280;33483;48.294;16.388;2023-05-23T06:27:48;99175.91;;;20.80;100.00
47726;BME280;33483;48.294;16.388;2023-05-23T06:30:16;99174.22;;;20.86;100.00
47726;BME280;33483;48.294;16.388;2023-05-23T06:32:44;99184.47;;;20.82;100.00
47726;BME280;33483;48.294;16.388;2023-05-23T06:35:12;99184.56;;;21.05;100.00
47726;BME280;33483;48.294;16.388;2023-05-23T06:37:42;99178.59;;;21.10;100.00
47726;BME280;33483;48.294;16.388;2023-05-23T06:40:11;99190.09;;;20.82;100.00
47726;BME280;33483;48.294;16.388;2023-05-23T06:42:41;99188.19;;;20.96;100.00
47726;BME280;33483;48.294;16.388;2023-05-23T06:45:22;99177.28;;;21.58;100.00
47726;BME280;33483;48.294;16.388;2023-05-23T06:47:49;99193.50;;;22.40;100.00
47726;BME280;33483;48.294;16.388;2023-05-23T06:50:17;99196.88;;;23.12;100.00
47726;BME280;33483;48.294;16.388;2023-05-23T06:52:51;99187.28;;;24.66;84.91
47726;BME280;33483;48.294;16.388;2023-05-23T06:55:18;99201.09;;;25.94;74.43
47726;BME280;33483;48.294;16.388;2023-05-23T06:57:48;99194.97;;;27.01;67.93
47726;BME280;33483;48.294;16.388;2023-05-23T07:00:20;99199.34;;;27.79;64.08
47726;BME280;33483;48.294;16.388;2023-05-23T07:03:01;99208.44;;;28.53;60.60
47726;BME280;33483;48.294;16.388;2023-05-23T07:05:29;99200.47;;;28.93;53.86
47726;BME280;33483;48.294;16.388;2023-05-23T07:07:59;99201.34;;;28.54;50.49
47726;BME280;33483;48.294;16.388;2023-05-23T07:10:27;99202.97;;;29.26;47.52
47726;BME280;33483;48.294;16.388;2023-05-23T07:13:01;99191.66;;;30.03;47.64
47726;BME280;33483;48.294;16.388;2023-05-23T07:15:28;99195.38;;;29.58;48.01
47726;BME280;33483;48.294;16.388;2023-05-23T07:18:07;99187.84;;;29.69;46.87
47726;BME280;33483;48.294;16.388;2023-05-23T07:20:34;99185.47;;;30.13;45.16
47726;BME280;33483;48.294;16.388;2023-05-23T07:23:12;99189.47;;;30.27;45.75
47726;BME280;33483;48.294;16.388;2023-05-23T07:25:39;99185.09;;;30.52;44.40
47726;BME280;33483;48.294;16.388;2023-05-23T07:28:29;99193.22;;;30.63;43.43
47726;BME280;33483;48.294;16.388;2023-05-23T07:30:57;99191.19;;;30.96;42.14
47726;BME280;33483;48.294;16.388;2023-05-23T07:33:26;99182.75;;;31.02;43.08
47726;BME280;33483;48.294;16.388;2023-05-23T07:36:01;99190.38;;;31.54;39.98
47726;BME280;33483;48.294;16.388;2023-05-23T07:38:28;99186.84;;;30.92;41.68
47726;BME280;33483;48.294;16.388;2023-05-23T07:40:55;99185.81;;;30.52;42.95
47726;BME280;33483;48.294;16.388;2023-05-23T07:43:38;99184.63;;;30.61;42.31
47726;BME280;33483;48.294;16.388;2023-05-23T07:46:05;99178.63;;;30.79;42.61
47726;BME280;33483;48.294;16.388;2023-05-23T07:48:32;99174.75;;;31.28;40.91
47726;BME280;33483;48.294;16.388;2023-05-23T07:51:00;99186.09;;;31.89;38.87
47726;BME280;33483;48.294;16.388;2023-05-23T07:53:28;99178.25;;;31.58;40.10
47726;BME280;33483;48.294;16.388;2023-05-23T07:55:59;99178.16;;;31.52;39.70
47726;BME280;33483;48.294;16.388;2023-05-23T07:58:32;99179.59;;;31.53;40.05
47726;BME280;33483;48.294;16.388;2023-05-23T08:00:59;99177.31;;;31.81;39.69
47726;BME280;33483;48.294;16.388;2023-05-23T08:04:02;99180.56;;;31.99;39.16
47726;BME280;33483;48.294;16.388;2023-05-23T08:06:44;99184.34;;;32.10;38.68
47726;BME280;33483;48.294;16.388;2023-05-23T08:09:50;99178.19;;;31.54;38.95
47726;BME280;33483;48.294;16.388;2023-05-23T08:12:19;99184.28;;;31.72;38.65
47726;BME280;33483;48.294;16.388;2023-05-23T08:14:50;99172.88;;;32.10;39.46
47726;BME280;33483;48.294;16.388;2023-05-23T08:17:22;99181.00;;;32.23;37.46
47726;BME280;33483;48.294;16.388;2023-05-23T08:19:51;99168.06;;;32.20;37.67
47726;BME280;33483;48.294;16.388;2023-05-23T08:22:18;99166.03;;;32.68;37.37
47726;BME280;33483;48.294;16.388;2023-05-23T08:24:46;99172.53;;;32.73;37.40
47726;BME280;33483;48.294;16.388;2023-05-23T08:27:32;99172.44;;;32.25;37.64
47726;BME280;33483;48.294;16.388;2023-05-23T08:30:09;99175.09;;;32.53;37.49
47726;BME280;33483;48.294;16.388;2023-05-23T08:32:37;99172.38;;;32.21;37.75
47726;BME280;33483;48.294;16.388;2023-05-23T08:35:05;99171.50;;;32.52;37.17
47726;BME280;33483;48.294;16.388;2023-05-23T08:37:32;99167.56;;;31.94;37.23
47726;BME280;33483;48.294;16.388;2023-05-23T08:39:59;99166.19;;;31.97;37.13
47726;BME280;33483;48.294;16.388;2023-05-23T08:42:39;99166.72;;;32.25;36.69
47726;BME280;33483;48.294;16.388;2023-05-23T08:45:08;99164.66;;;31.92;38.37
47726;BME280;33483;48.294;16.388;2023-05-23T08:47:36;99163.22;;;31.93;38.06
47726;BME280;33483;48.294;16.388;2023-05-23T08:50:13;99157.19;;;31.79;38.21
47726;BME280;33483;48.294;16.388;2023-05-23T08:53:02;99158.03;;;32.21;38.49
47726;BME280;33483;48.294;16.388;2023-05-23T08:55:30;99168.78;;;32.62;37.19
47726;BME280;33483;48.294;16.388;2023-05-23T08:58:00;99165.69;;;32.48;37.52
47726;BME280;33483;48.294;16.388;2023-05-23T09:00:50;99161.78;;;32.73;36.36
47726;BME280;33483;48.294;16.388;2023-05-23T09:03:19;99161.88;;;32.77;37.56
47726;BME280;33483;48.294;16.388;2023-05-23T09:06:23;99159.59;;;32.70;36.71
47726;BME280;33483;48.294;16.388;2023-05-23T09:08:51;99159.94;;;32.48;37.19
47726;BME280;33483;48.294;16.388;2023-05-23T09:11:22;99160.13;;;32.58;37.58
47726;BME280;33483;48.294;16.388;2023-05-23T09:13:50;99163.06;;;32.23;37.42
47726;BME280;33483;48.294;16.388;2023-05-23T09:16:18;99162.34;;;33.10;35.93
47726;BME280;33483;48.294;16.388;2023-05-23T09:18:57;99153.81;;;32.26;38.42
47726;BME280;33483;48.294;16.388;2023-05-23T09:21:30;99155.66;;;32.49;37.54
47726;BME280;33483;48.294;16.388;2023-05-23T09:24:10;99160.91;;;33.09;36.95
47726;BME280;33483;48.294;16.388;2023-05-23T09:26:38;99159.09;;;32.85;36.90
47726;BME280;33483;48.294;16.388;2023-05-23T09:29:08;99153.25;;;32.36;37.56
47726;BME280;33483;48.294;16.388;2023-05-23T09:31:38;99159.00;;;32.36;38.74
47726;BME280;33483;48.294;16.388;2023-05-23T09:37:10;99163.31;;;32.78;38.20
47726;BME280;33483;48.294;16.388;2023-05-23T09:39:39;99158.84;;;33.15;37.50
47726;BME280;33483;48.294;16.388;2023-05-23T09:42:06;99161.13;;;33.23;37.82
47726;BME280;33483;48.294;16.388;2023-05-23T09:44:34;99162.66;;;33.89;35.58
47726;BME280;33483;48.294;16.388;2023-05-23T09:47:08;99165.81;;;33.52;36.64
47726;BME280;33483;48.294;16.388;2023-05-23T09:49:37;99162.25;;;33.01;37.60
47726;BME280;33483;48.294;16.388;2023-05-23T09:52:04;99167.25;;;33.51;37.00
47726;BME280;33483;48.294;16.388;2023-05-23T09:54:31;99160.06;;;33.52;37.04
47726;BME280;33483;48.294;16.388;2023-05-23T09:56:59;99156.44;;;32.97;36.35
47726;BME280;33483;48.294;16.388;2023-05-23T09:59:27;99157.25;;;33.56;35.83
47726;BME280;33483;48.294;16.388;2023-05-23T10:01:57;99154.59;;;33.20;35.87
47726;BME280;33483;48.294;16.388;2023-05-23T10:04:26;99154.06;;;33.32;35.71
47726;BME280;33483;48.294;16.388;2023-05-23T10:06:58;99155.25;;;33.66;35.05
47726;BME280;33483;48.294;16.388;2023-05-23T10:09:28;99151.72;;;33.72;34.34
47726;BME280;33483;48.294;16.388;2023-05-23T10:14:44;99153.19;;;33.75;33.08
47726;BME280;33483;48.294;16.388;2023-05-23T10:17:17;99157.50;;;32.74;34.34
47726;BME280;33483;48.294;16.388;2023-05-23T10:19:51;99139.38;;;32.20;35.56
47726;BME280;33483;48.294;16.388;2023-05-23T10:23:09;99140.47;;;32.41;35.65
47726;BME280;33483;48.294;16.388;2023-05-23T10:25:37;99139.22;;;32.54;36.86
47726;BME280;33483;48.294;16.388;2023-05-23T10:28:05;99140.22;;;32.70;35.97
47726;BME280;33483;48.294;16.388;2023-05-23T10:49:08;99113.19;;;32.00;36.00
47726;BME280;33483;48.294;16.388;2023-05-23T10:59:04;99103.75;;;31.93;36.87
47726;BME280;33483;48.294;16.388;2023-05-23T11:01:32;99104.66;;;32.04;36.57
47726;BME280;33483;48.294;16.388;2023-05-23T11:19:39;99077.97;;;31.93;36.19
47726;BME280;33483;48.294;16.388;2023-05-23T11:22:21;99068.19;;;32.09;38.21
47726;BME280;33483;48.294;16.388;2023-05-23T11:24:53;99060.50;;;31.79;39.44
47726;BME280;33483;48.294;16.388;2023-05-23T11:27:30;99058.28;;;31.38;39.46
47726;BME280;33483;48.294;16.388;2023-05-23T11:32:59;99046.47;;;31.58;40.51
47726;BME280;33483;48.294;16.388;2023-05-23T11:35:26;99054.69;;;31.38;40.04
47726;BME280;33483;48.294;16.388;2023-05-23T11:40:55;99052.75;;;29.66;42.37
47726;BME280;33483;48.294;16.388;2023-05-23T11:43:23;99045.63;;;29.14;43.64
47726;BME280;33483;48.294;16.388;2023-05-23T11:49:21;99043.56;;;28.69;45.53
47726;BME280;33483;48.294;16.388;2023-05-23T11:51:48;99044.94;;;28.68;44.47
47726;BME280;33483;48.294;16.388;2023-05-23T11:54:15;99035.81;;;28.50;44.00
47726;BME280;33483;48.294;16.388;2023-05-23T11:56:43;99036.09;;;28.37;43.48
47726;BME280;33483;48.294;16.388;2023-05-23T12:03:10;99024.69;;;28.58;42.60
47726;BME280;33483;48.294;16.388;2023-05-23T12:05:37;99024.63;;;28.56;42.76
47726;BME280;33483;48.294;16.388;2023-05-23T12:08:04;99025.56;;;28.20;41.83
47726;BME280;33483;48.294;16.388;2023-05-23T12:10:32;99014.59;;;28.10;43.65
47726;BME280;33483;48.294;16.388;2023-05-23T12:12:59;99012.34;;;28.07;43.61
47726;BME280;33483;48.294;16.388;2023-05-23T12:15:27;99016.59;;;27.86;42.38
47726;BME280;33483;48.294;16.388;2023-05-23T12:17:56;99019.09;;;28.17;44.10
47726;BME280;33483;48.294;16.388;2023-05-23T12:20:24;99020.19;;;28.30;43.99
47726;BME280;33483;48.294;16.388;2023-05-23T12:22:55;99034.22;;;28.45;43.18
47726;BME280;33483;48.294;16.388;2023-05-23T12:25:22;99030.13;;;28.50;42.64
47726;BME280;33483;48.294;16.388;2023-05-23T12:30:49;99026.88;;;28.60;42.42
47726;BME280;33483;48.294;16.388;2023-05-23T12:33:19;99028.13;;;28.55;42.24
47726;BME280;33483;48.294;16.388;2023-05-23T12:35:46;99024.91;;;28.66;41.92
47726;BME280;33483;48.294;16.388;2023-05-23T12:38:14;99020.31;;;28.55;43.89
47726;BME280;33483;48.294;16.388;2023-05-23T12:40:42;99017.06;;;28.43;45.85
47726;BME280;33483;48.294;16.388;2023-05-23T12:43:09;99019.69;;;28.14;42.59
47726;BME280;33483;48.294;16.388;2023-05-23T12:45:36;99020.97;;;28.09;44.09
47726;BME280;33483;48.294;16.388;2023-05-23T12:48:04;99016.19;;;27.94;44.99
47726;BME280;33483;48.294;16.388;2023-05-23T12:50:34;99037.91;;;27.63;44.52
47726;BME280;33483;48.294;16.388;2023-05-23T12:53:05;99041.28;;;27.19;45.05
47726;BME280;33483;48.294;16.388;2023-05-23T12:55:38;99040.56;;;26.99;46.93
47726;BME280;33483;48.294;16.388;2023-05-23T12:58:05;99035.50;;;27.17;48.09
47726;BME280;33483;48.294;16.388;2023-05-23T13:04:57;99041.19;;;26.97;50.58
47726;BME280;33483;48.294;16.388;2023-05-23T13:07:24;99030.25;;;26.90;52.73
47726;BME280;33483;48.294;16.388;2023-05-23T13:09:52;99027.47;;;26.54;51.72
47726;BME280;33483;48.294;16.388;2023-05-23T13:12:19;99018.69;;;26.48;52.74
47726;BME280;33483;48.294;16.388;2023-05-23T13:14:47;99020.94;;;26.32;53.83
47726;BME280;33483;48.294;16.388;2023-05-23T13:17:14;99020.97;;;26.34;54.56
47726;BME280;33483;48.294;16.388;2023-05-23T13:19:42;99021.91;;;26.21;54.16
47726;BME280;33483;48.294;16.388;2023-05-23T13:22:09;99022.63;;;26.04;55.35
47726;BME280;33483;48.294;16.388;2023-05-23T13:24:37;99020.53;;;25.89;56.22
47726;BME280;33483;48.294;16.388;2023-05-23T13:27:04;99016.16;;;25.86;56.53
47726;BME280;33483;48.294;16.388;2023-05-23T13:29:32;99012.13;;;25.91;56.98
47726;BME280;33483;48.294;16.388;2023-05-23T13:31:59;99010.84;;;25.94;62.63
47726;BME280;33483;48.294;16.388;2023-05-23T13:34:27;99013.50;;;25.90;57.85
47726;BME280;33483;48.294;16.388;2023-05-23T13:36:54;99024.03;;;25.88;56.94
47726;BME280;33483;48.294;16.388;2023-05-23T13:39:21;99013.41;;;25.88;57.35
47726;BME280;33483;48.294;16.388;2023-05-23T13:41:49;99021.69;;;25.82;57.41
47726;BME280;33483;48.294;16.388;2023-05-23T13:44:17;99033.28;;;25.88;57.27
47726;BME280;33483;48.294;16.388;2023-05-23T13:46:44;99034.75;;;25.72;59.07
47726;BME280;33483;48.294;16.388;2023-05-23T13:49:11;99043.72;;;25.66;59.02
47726;BME280;33483;48.294;16.388;2023-05-23T13:51:38;99041.91;;;25.57;60.79
47726;BME280;33483;48.294;16.388;2023-05-23T13:54:07;99051.47;;;25.17;62.68
47726;BME280;33483;48.294;16.388;2023-05-23T13:56:34;99062.72;;;24.84;62.55
47726;BME280;33483;48.294;16.388;2023-05-23T13:59:07;99061.03;;;24.34;61.25
47726;BME280;33483;48.294;16.388;2023-05-23T14:01:35;99072.28;;;23.89;64.25
47726;BME280;33483;48.294;16.388;2023-05-23T14:04:03;99102.00;;;23.09;68.57
47726;BME280;33483;48.294;16.388;2023-05-23T14:06:32;99096.69;;;22.26;96.38
47726;BME280;33483;48.294;16.388;2023-05-23T14:09:02;99097.09;;;21.49;100.00
47726;BME280;33483;48.294;16.388;2023-05-23T14:11:31;99087.03;;;20.88;100.00
47726;BME280;33483;48.294;16.388;2023-05-23T14:13:59;99096.63;;;20.30;100.00
47726;BME280;33483;48.294;16.388;2023-05-23T14:16:26;99089.09;;;19.90;100.00